Time;durP1;ratioP1;P1;durP2;ratioP2;P2;SDS_P1;SDS_P2;PMS_P1;PMS_P2;Temp;Humidity;BMP_temperature;BMP_pressure;BME280_temperature;BME280_humidity;BME280_pressure;Samples;Min_cycle;Max_cycle;Signal;HPM_P1;HPM_P2
2022/06/01 00:02:22;;;;;;;0.90;0.40;;;15.10;99.90;;;13.83;80.62;99961.06;10272415;28;96956;-91
2022/06/01 00:07:25;;;;;;;0.50;0.50;;;15.10;99.90;;;13.79;80.72;99956.31;10244709;28;98547;-90
2022/06/01 00:12:34;;;;;;;0.20;0.20;;;15.10;99.90;;;13.73;81.08;99949.09;10234193;28;98622;-90
2022/06/01 00:17:38;;;;;;;0.67;0.40;;;15.00;99.90;;;13.72;81.36;99939.44;10246793;28;98874;-91
2022/06/01 00:22:41;;;;;;;1.33;0.40;;;15.00;99.90;;;13.70;81.56;99939.63;10245382;28;97890;-91
2022/06/01 00:27:44;;;;;;;0.40;0.30;;;15.00;99.90;;;13.71;81.41;99943.13;10228573;28;97313;-91
2022/06/01 00:32:48;;;;;;;0.53;0.27;;;15.00;99.90;;;13.66;81.31;99939.19;10230706;28;98366;-91
2022/06/01 00:37:52;;;;;;;0.50;0.50;;;15.00;99.90;;;13.62;81.36;99943.28;10276441;28;97477;-90
2022/06/01 00:42:58;;;;;;;4.60;0.50;;;14.90;99.90;;;13.58;81.67;99938.50;10236879;28;96627;-90
2022/06/01 00:48:01;;;;;;;1.50;0.77;;;14.90;99.90;;;13.52;81.90;99942.78;10244863;28;97846;-91
2022/06/01 00:53:18;;;;;;;0.33;0.33;;;14.80;99.90;;;13.53;82.33;99939.09;10221346;28;96531;-91
2022/06/01 00:58:29;;;;;;;0.30;0.30;;;14.80;99.90;;;13.53;82.74;99939.09;10246202;28;96745;-89
2022/06/01 01:03:37;;;;;;;0.07;0.07;;;14.80;99.90;;;13.51;82.76;99934.97;10219947;28;98900;-90
2022/06/01 01:08:42;;;;;;;1.27;0.60;;;14.80;99.90;;;13.50;83.27;99930.66;10245595;28;96693;-90
2022/06/01 01:13:49;;;;;;;0.40;0.40;;;14.80;99.90;;;13.49;83.30;99934.31;10231423;28;98317;-89
2022/06/01 01:18:54;;;;;;;0.53;0.30;;;14.80;99.90;;;13.52;83.48;99936.63;10245829;28;98114;-91
2022/06/01 01:24:13;;;;;;;0.97;0.40;;;14.80;99.90;;;13.55;83.71;99934.38;10223037;28;96736;-91
2022/06/01 01:29:36;;;;;;;0.60;0.50;;;14.90;99.90;;;13.59;83.74;99935.63;10241885;28;98583;-90
2022/06/01 01:34:44;;;;;;;0.57;0.43;;;15.00;99.90;;;13.61;83.59;99925.59;10259082;28;96668;-91
2022/06/01 01:39:49;;;;;;;0.47;0.10;;;15.00;99.90;;;13.61;83.82;99925.59;10236125;28;98108;-91
2022/06/01 01:45:25;;;;;;;0.53;0.37;;;14.90;99.90;;;13.58;83.72;99925.97;10271290;28;97369;-91
2022/06/01 01:50:28;;;;;;;0.40;0.30;;;14.90;99.90;;;13.58;84.18;99923.31;10257175;28;96715;-91
2022/06/01 01:56:00;;;;;;;0.73;0.60;;;14.90;99.90;;;13.58;84.46;99931.31;10256825;28;97429;-90
2022/06/01 02:01:15;;;;;;;0.90;0.60;;;14.90;99.90;;;13.61;84.59;99927.44;10255173;28;97718;-91
2022/06/01 02:06:46;;;;;;;2.30;0.77;;;14.90;99.90;;;13.66;84.45;99931.16;10248977;28;96612;-91
2022/06/01 02:17:29;;;;;;;2.20;0.90;;;15.00;99.90;;;13.73;84.65;99911.69;10233003;28;97442;-91
2022/06/01 02:22:34;;;;;;;0.80;0.70;;;15.00;99.90;;;13.77;84.76;99907.63;10257683;28;96995;-91
2022/06/01 02:27:38;;;;;;;0.43;0.43;;;15.10;99.90;;;13.82;84.54;99915.88;10236657;28;96747;-91
2022/06/01 02:32:42;;;;;;;0.60;0.60;;;15.10;99.90;;;13.86;84.55;99909.13;10234702;28;96801;-91
2022/06/01 02:37:49;;;;;;;0.67;0.50;;;15.20;99.90;;;13.88;84.33;99912.44;10255503;28;97314;-92
2022/06/01 02:42:53;;;;;;;0.50;0.50;;;15.20;99.90;;;13.90;84.39;99910.38;10220473;28;98397;-92
2022/06/01 02:48:01;;;;;;;0.57;0.57;;;15.20;99.90;;;13.87;84.42;99913.44;10252016;28;96603;-92
2022/06/01 02:53:05;;;;;;;1.35;0.45;;;15.10;99.90;;;13.90;84.47;99911.19;10276895;28;96713;-92
2022/06/01 02:58:08;;;;;;;1.58;0.85;;;15.20;99.90;;;13.92;84.83;99900.34;10241613;28;97450;-91
2022/06/01 03:03:11;;;;;;;0.23;0.23;;;15.20;99.90;;;13.97;85.02;99907.75;10247801;28;96503;-92
2022/06/01 03:08:14;;;;;;;1.53;1.37;;;15.30;99.90;;;14.04;85.22;99893.41;10269784;28;96805;-92
2022/06/01 03:13:19;;;;;;;0.50;0.40;;;15.30;99.90;;;14.10;85.41;99897.97;10266952;28;98230;-91
2022/06/01 03:18:22;;;;;;;0.60;0.60;;;15.40;99.90;;;14.19;85.65;99891.41;10257348;28;98123;-91
2022/06/01 03:23:26;;;;;;;3.28;0.93;;;15.50;99.90;;;14.29;85.58;99906.28;10241448;28;96589;-91
2022/06/01 03:28:29;;;;;;;0.90;0.50;;;15.60;99.90;;;14.29;85.47;99955.19;10254395;28;98360;-90
2022/06/01 03:33:35;;;;;;;1.23;0.90;;;15.50;99.90;;;14.08;86.61;99956.09;10261921;28;97530;-91
2022/06/01 03:38:38;;;;;;;4.40;1.23;;;15.30;99.90;;;13.93;88.67;99964.25;10239067;28;96863;-91
2022/06/01 03:49:02;;;;;;;2.17;1.37;;;15.10;99.90;;;13.99;90.84;99972.50;10260597;28;97242;-88
2022/06/01 03:54:09;;;;;;;1.70;1.20;;;15.20;99.90;;;14.03;91.65;99973.75;10215738;28;96705;-89
2022/06/01 03:59:12;;;;;;;1.80;1.17;;;15.20;99.90;;;14.11;92.40;99984.28;10248110;28;97408;-88
2022/06/01 04:04:15;;;;;;;2.53;1.13;;;15.30;99.90;;;14.16;93.10;99974.66;10262245;28;96575;-88
2022/06/01 04:09:19;;;;;;;1.47;0.80;;;15.30;99.90;;;14.24;93.73;99967.50;10258556;28;96622;-89
2022/06/01 04:14:23;;;;;;;1.50;0.93;;;15.40;99.90;;;14.26;94.45;99955.59;10252649;28;96749;-89
2022/06/01 04:19:27;;;;;;;2.17;1.27;;;15.40;99.90;;;14.31;95.12;99960.34;10248959;28;98351;-89
2022/06/01 04:24:33;;;;;;;2.30;0.93;;;15.50;99.90;;;14.38;95.43;99969.22;10241547;28;97237;-89
2022/06/01 04:29:36;;;;;;;7.93;1.10;;;15.50;99.90;;;14.47;96.08;99959.22;10264424;28;96552;-90
2022/06/01 04:34:40;;;;;;;4.17;2.20;;;15.60;99.90;;;14.56;96.55;99963.38;10247471;28;96676;-89
2022/06/01 04:39:43;;;;;;;1.70;1.13;;;15.70;99.90;;;14.67;96.69;99968.16;10236813;28;96699;-89
2022/06/01 04:44:47;;;;;;;3.22;1.65;;;15.80;99.90;;;14.77;96.93;99968.59;10275391;28;96605;-88
2022/06/01 04:49:50;;;;;;;3.00;2.00;;;15.90;99.90;;;14.87;97.28;99973.56;10244602;28;96827;-89
2022/06/01 04:54:53;;;;;;;3.97;2.10;;;16.00;99.90;;;14.96;97.53;99972.38;10265564;28;98287;-88
2022/06/01 04:59:56;;;;;;;1.50;1.10;;;16.10;99.90;;;15.07;98.06;99969.09;10250315;28;96532;-88
2022/06/01 05:04:59;;;;;;;3.58;2.15;;;16.20;99.90;;;15.17;98.28;99947.28;10230335;28;98043;-89
2022/06/01 05:10:02;;;;;;;0.98;0.93;;;16.30;99.90;;;15.24;98.53;99967.69;10247394;28;97232;-88
2022/06/01 05:15:06;;;;;;;2.00;1.03;;;16.40;99.90;;;15.38;98.70;99975.75;10244916;28;96690;-87
2022/06/01 05:20:11;;;;;;;2.30;1.13;;;16.50;99.90;;;15.47;98.80;99979.84;10262320;28;98214;-87
2022/06/01 05:25:14;;;;;;;2.63;1.13;;;16.60;99.90;;;15.51;98.85;99968.53;10253084;28;96542;-87
2022/06/01 05:30:17;;;;;;;0.82;0.40;;;16.60;99.90;;;15.53;98.95;99987.91;10248019;28;96984;-87
2022/06/01 05:35:20;;;;;;;2.30;1.63;;;16.60;99.90;;;15.55;98.84;99997.59;10225581;28;98427;-89
2022/06/01 05:40:25;;;;;;;1.27;0.95;;;16.70;99.90;;;15.53;98.63;99997.78;10228314;28;98009;-87
2022/06/01 05:45:30;;;;;;;2.38;1.50;;;16.70;99.90;;;15.55;98.71;100001.09;10238055;28;96871;-87
2022/06/01 05:50:33;;;;;;;3.20;1.52;;;16.70;99.90;;;15.60;98.94;100012.03;10250145;28;96553;-88
2022/06/01 05:55:37;;;;;;;2.65;1.23;;;16.70;99.90;;;15.67;99.27;100012.88;10249476;28;97118;-86
2022/06/01 06:00:40;;;;;;;3.35;1.65;;;16.70;99.90;;;15.73;99.38;100013.91;10265358;28;96797;-87
2022/06/01 06:11:06;;;;;;;2.50;1.67;;;16.80;99.90;;;15.89;99.53;100018.84;10260477;28;97460;-87
2022/06/01 06:16:12;;;;;;;1.92;1.73;;;16.90;99.90;;;15.95;99.60;100025.22;10230810;28;98127;-87
2022/06/01 06:21:15;;;;;;;2.58;1.75;;;17.00;99.90;;;16.02;99.91;100026.06;10253413;28;96577;-87
2022/06/01 06:26:19;;;;;;;2.78;2.00;;;17.00;99.90;;;16.04;99.91;100030.19;10233777;28;97617;-87
2022/06/01 06:31:22;;;;;;;3.03;2.15;;;17.00;99.90;;;16.09;99.81;100032.25;10255409;28;96587;-88
2022/06/01 06:36:26;;;;;;;3.22;1.92;;;17.00;99.90;;;16.15;99.92;100035.94;10268289;28;96583;-88
2022/06/01 06:41:29;;;;;;;3.30;1.73;;;17.10;99.90;;;16.20;99.84;100044.19;10256286;28;96615;-87
2022/06/01 06:46:33;;;;;;;3.45;1.98;;;17.10;99.90;;;16.27;99.75;100053.88;10269346;28;96696;-88
2022/06/01 06:51:37;;;;;;;1.65;1.20;;;17.20;99.90;;;16.36;99.87;100054.47;10254707;28;96668;-88
2022/06/01 06:56:40;;;;;;;2.03;1.20;;;17.30;99.90;;;16.45;99.61;100053.22;10236067;28;96656;-87
2022/06/01 07:01:43;;;;;;;1.75;1.05;;;17.40;99.90;;;16.50;99.13;100057.97;10270336;28;96605;-87
2022/06/01 07:06:46;;;;;;;1.02;0.75;;;17.40;99.90;;;16.51;98.55;100067.66;10252777;28;98673;-88
2022/06/01 07:11:49;;;;;;;1.30;0.82;;;17.40;99.90;;;16.56;98.33;100067.84;10268186;28;96675;-88
2022/06/01 07:16:52;;;;;;;1.30;0.75;;;17.50;99.90;;;16.69;98.32;100075.03;10268152;28;96723;-88
2022/06/01 07:21:55;;;;;;;1.05;0.93;;;17.60;99.90;;;16.81;97.84;100073.38;10236688;28;96792;-88
2022/06/01 07:26:58;;;;;;;0.98;0.75;;;17.70;99.90;;;16.97;97.58;100066.69;10253883;28;96627;-88
2022/06/01 07:32:01;;;;;;;0.10;0.10;;;17.90;99.90;;;17.10;96.09;100072.88;10249583;28;98205;-89
2022/06/01 07:43:05;;;;;;;1.35;0.50;;;18.00;99.90;;;17.20;94.95;100066.19;10247149;28;98384;-88
2022/06/01 07:47:49;;;;;;;0.60;0.50;;;18.20;99.90;;;17.63;93.60;100077.94;10238944;28;96651;-88
2022/06/01 07:53:12;;;;;;;1.35;0.70;;;18.50;99.90;;;17.84;91.46;100087.53;10233351;28;97647;-90
2022/06/01 07:58:15;;;;;;;0.70;0.65;;;18.70;99.90;;;18.11;91.93;100084.63;10253702;28;96668;-89
2022/06/01 08:03:20;;;;;;;1.30;0.43;;;18.90;99.90;;;18.30;89.52;100082.84;10262998;28;98353;-91
2022/06/01 08:08:23;;;;;;;0.32;0.22;;;19.10;99.90;;;18.48;87.28;100080.16;10233407;28;96824;-88
2022/06/01 08:13:27;;;;;;;1.70;0.70;;;19.30;99.90;;;18.65;86.21;100091.16;10251312;28;96414;-90
2022/06/01 08:18:32;;;;;;;0.47;0.40;;;19.40;99.90;;;18.77;83.69;100088.56;10252609;28;96663;-89
2022/06/01 08:23:34;;;;;;;0.75;0.57;;;19.50;99.90;;;18.82;81.96;100091.41;10250802;28;96631;-89
2022/06/01 08:28:37;;;;;;;0.85;0.75;;;19.60;99.90;;;18.80;81.37;100093.53;10234350;28;96881;-89
2022/06/01 08:33:41;;;;;;;0.30;0.20;;;19.60;99.90;;;18.81;81.30;100098.69;10234398;28;98309;-89
2022/06/01 08:38:43;;;;;;;0.50;0.40;;;19.60;99.90;;;18.78;80.50;100095.63;10249249;28;97450;-89
2022/06/01 08:43:54;;;;;;;0.55;0.50;;;19.60;99.90;;;18.89;80.62;100098.41;10267489;28;96639;-89
2022/06/01 08:49:14;;;;;;;1.23;0.38;;;19.70;99.90;;;18.98;79.33;100104.28;10248407;28;97141;-88
2022/06/01 08:54:18;;;;;;;1.17;0.90;;;19.80;99.90;;;19.17;79.33;100102.41;10249140;28;97433;-89
2022/06/01 08:59:58;;;;;;;0.63;0.35;;;19.90;99.90;;;19.43;77.11;100099.38;10263723;28;96717;-91
2022/06/01 09:05:18;;;;;;;0.60;0.38;;;20.10;99.90;;;19.78;77.48;100106.78;10233611;28;96635;-89
2022/06/01 09:10:35;;;;;;;1.30;0.38;;;20.50;99.90;;;20.07;76.84;100110.47;10264223;28;97109;-89
2022/06/01 09:15:54;;;;;;;1.58;0.70;;;20.80;99.90;;;20.25;74.82;100106.88;10250702;28;97486;-88
2022/06/01 09:26:31;;;;;;;0.75;0.50;;;21.20;99.90;;;20.75;82.03;100115.34;10217759;28;98490;-88
2022/06/01 09:31:42;;;;;;;0.40;0.20;;;21.50;99.90;;;20.98;84.56;100106.38;10249265;28;96702;-88
2022/06/01 09:37:18;;;;;;;0.45;0.30;;;21.70;99.90;;;21.21;82.73;100113.59;10264277;28;97488;-90
2022/06/01 09:42:35;;;;;;;0.60;0.45;;;22.00;99.90;;;21.17;79.67;100111.59;10249841;28;96591;-88
2022/06/01 09:47:43;;;;;;;0.52;0.45;;;22.00;99.90;;;21.13;75.17;100113.16;10246382;28;96654;-89
2022/06/01 09:52:48;;;;;;;0.40;0.30;;;22.00;99.90;;;21.22;76.97;100117.13;10232880;28;96588;-89
2022/06/01 10:09:40;;;;;;;0.50;0.50;;;22.40;99.90;;;21.73;68.40;100118.13;10274303;28;96684;-89
2022/06/01 10:15:04;;;;;;;0.60;0.52;;;22.50;98.20;;;21.87;67.22;100105.94;10221833;28;96614;-88
2022/06/01 10:20:56;;;;;;;0.73;0.52;;;22.60;99.60;;;22.10;65.10;100111.22;10279093;28;96728;-88
2022/06/01 10:26:36;;;;;;;0.85;0.60;;;22.90;98.10;;;22.25;64.11;100101.72;10271260;28;97373;-90
2022/06/01 10:32:04;;;;;;;0.98;0.68;;;23.00;97.70;;;22.53;63.80;100095.38;10272134;28;98778;-89
2022/06/01 10:38:10;;;;;;;0.45;0.20;;;23.30;96.50;;;22.74;60.84;100099.19;10260147;28;96797;-90
2022/06/01 10:44:52;;;;;;;2.10;1.17;;;23.50;94.10;;;22.86;56.92;100103.44;10280800;28;97123;-88
2022/06/01 10:50:20;;;;;;;0.30;0.30;;;23.60;90.30;;;23.08;54.74;100102.63;10222109;28;98559;-88
2022/06/01 10:55:33;;;;;;;0.77;0.40;;;23.80;87.50;;;23.27;55.13;100109.38;10202203;28;96706;-87
2022/06/01 11:01:33;;;;;;;0.40;0.30;;;24.00;88.50;;;23.38;55.34;100102.16;10209442;28;96851;-89
2022/06/01 11:07:20;;;;;;;0.30;0.30;;;24.10;87.40;;;23.68;60.64;100102.50;10210495;28;96939;-89
2022/06/01 11:12:50;;;;;;;0.60;0.40;;;24.40;91.40;;;24.00;58.55;100101.72;10196306;28;96668;-89
2022/06/01 11:18:02;;;;;;;0.40;0.40;;;24.70;90.00;;;24.17;55.56;100107.00;10223168;28;96574;-90
2022/06/01 11:23:40;;;;;;;0.52;0.50;;;24.90;84.20;;;24.33;54.00;100099.81;10268106;28;96626;-88
2022/06/01 11:28:52;;;;;;;1.08;0.50;;;25.10;82.10;;;24.52;54.58;100090.16;10235455;28;96734;-89
2022/06/01 11:34:45;;;;;;;1.02;0.40;;;25.30;81.60;;;24.68;51.98;100089.19;10246044;28;98427;-89
2022/06/01 11:40:10;;;;;;;0.45;0.22;;;25.40;76.70;;;24.85;51.57;100083.56;10246721;28;96870;-91
2022/06/01 11:45:32;;;;;;;0.60;0.40;;;25.50;80.10;;;25.02;47.22;100080.66;10267984;28;96467;-88
2022/06/01 11:50:52;;;;;;;0.63;0.28;;;25.80;70.40;;;24.99;45.96;100079.28;10250157;28;96716;-89
2022/06/01 11:56:13;;;;;;;;;;;25.70;72.00;;;25.11;48.04;100078.25;10236686;28;96686;-89
2022/06/01 12:01:43;;;;;;;0.57;0.30;;;25.80;74.60;;;25.27;47.41;100079.97;10267873;28;97002;-89
2022/06/01 12:07:19;;;;;;;0.50;0.38;;;25.90;75.00;;;25.48;46.84;100078.09;10252017;28;98390;-90
2022/06/01 12:12:36;;;;;;;0.20;0.20;;;26.20;70.80;;;25.59;45.69;100079.75;10252691;28;97312;-89
2022/06/01 12:18:12;;;;;;;0.10;0.10;;;26.30;70.70;;;25.68;44.87;100089.03;10236081;28;96531;-89
2022/06/01 12:28:57;;;;;;;0.20;0.20;;;26.60;68.30;;;26.17;43.16;100080.34;10254854;28;96543;-85
2022/06/01 12:34:09;;;;;;;0.28;0.10;;;26.90;65.00;;;26.32;42.63;100068.59;10224784;28;96936;-89
2022/06/01 12:39:35;;;;;;;0.35;0.30;;;27.10;65.30;;;26.35;42.59;100066.16;10264399;28;96665;-89
2022/06/01 12:44:40;;;;;;;0.10;0.10;;;27.10;64.30;;;26.37;38.89;100069.41;10251044;28;96492;-87
2022/06/01 12:49:45;;;;;;;0.10;0.10;;;27.20;59.80;;;26.50;40.00;100069.97;10250176;28;96496;-88
2022/06/01 12:54:58;;;;;;;1.88;0.40;;;27.20;59.30;;;26.56;40.15;100064.22;10237130;28;96697;-89
2022/06/01 13:00:16;;;;;;;0.57;0.40;;;27.30;61.20;;;26.66;37.71;100069.66;10250753;28;96554;-85
2022/06/01 13:05:24;;;;;;;0.10;0.10;;;27.50;58.10;;;26.80;36.75;100058.16;10250805;28;97547;-88
2022/06/01 13:10:32;;;;;;;0.25;0.22;;;27.50;55.90;;;26.93;37.24;100054.84;10236026;28;97233;-88
2022/06/01 13:15:37;;;;;;;0.65;0.40;;;27.70;56.50;;;27.09;37.13;100058.31;10247860;28;96944;-89
2022/06/01 13:20:46;;;;;;;0.38;0.22;;;27.80;58.30;;;27.18;36.03;100056.66;10234507;28;96639;-89
2022/06/01 13:25:51;;;;;;;0.30;0.30;;;28.00;57.10;;;27.34;36.41;100054.63;10265257;28;96718;-87
2022/06/01 13:30:56;;;;;;;0.10;0.10;;;28.10;53.80;;;27.38;35.64;100048.34;10271507;28;98275;-89
2022/06/01 13:36:05;;;;;;;0.35;0.20;;;28.20;53.60;;;27.48;34.60;100048.28;10242518;28;96720;-88
2022/06/01 13:41:26;;;;;;;0.30;0.30;;;28.30;52.30;;;27.57;35.24;100040.28;10271759;28;96702;-90
2022/06/01 13:46:35;;;;;;;0.10;0.10;;;28.40;54.00;;;27.70;34.40;100027.94;10236336;28;96623;-87
2022/06/01 13:51:43;;;;;;;0.30;0.30;;;28.60;52.10;;;27.69;33.21;100026.31;10271099;28;96575;-89
2022/06/01 13:56:46;;;;;;;0.40;0.30;;;28.60;49.50;;;27.71;32.92;100018.66;10270181;28;96691;-91
2022/06/01 14:02:00;;;;;;;0.20;0.10;;;28.70;51.10;;;27.83;32.06;100021.84;10274186;28;98384;-88
2022/06/01 14:07:13;;;;;;;0.15;0.15;;;28.90;48.50;;;28.00;33.27;100024.13;10262724;28;97190;-90
2022/06/01 14:12:17;;;;;;;0.38;0.20;;;29.00;51.70;;;28.21;32.40;100011.09;10265341;28;97586;-91
2022/06/01 14:17:24;;;;;;;0.85;0.30;;;29.20;49.50;;;28.34;31.26;100010.44;10238959;28;97921;-91
2022/06/01 14:22:28;;;;;;;0.30;0.30;;;29.30;47.90;;;28.43;31.65;100010.59;10273486;28;96701;-89
2022/06/01 14:32:55;;;;;;;0.28;0.28;;;29.40;48.00;;;28.58;31.42;100004.16;10265657;28;98336;-89
2022/06/01 14:37:58;;;;;;;0.22;0.20;;;29.50;48.60;;;28.65;30.56;99994.47;10250294;28;96621;-88
2022/06/01 14:43:07;;;;;;;0.30;0.20;;;29.70;49.40;;;28.51;30.35;100005.31;10265043;28;98186;-89
2022/06/01 14:48:10;;;;;;;0.50;0.10;;;29.60;47.90;;;28.29;31.66;99996.78;10260238;28;96638;-88
2022/06/01 14:53:26;;;;;;;0.25;0.15;;;29.30;47.60;;;28.14;31.17;99992.31;10268005;28;96656;-88
2022/06/01 14:58:30;;;;;;;0.73;0.30;;;29.10;46.90;;;28.11;31.46;99994.78;10269661;28;97517;-89
2022/06/01 15:03:39;;;;;;;0.00;0.00;;;29.10;47.10;;;27.85;31.48;99995.06;10253128;28;96791;-91
2022/06/01 15:08:42;;;;;;;0.20;0.20;;;28.90;47.40;;;27.50;32.18;100000.78;10240036;28;98514;-91
2022/06/01 15:13:46;;;;;;;0.20;0.10;;;28.50;47.60;;;27.20;31.25;99995.25;10215408;28;96800;-90
2022/06/01 15:18:58;;;;;;;0.17;0.10;;;28.20;47.20;;;26.89;31.54;99991.88;10258341;28;96724;-89
2022/06/01 15:24:01;;;;;;;0.35;0.30;;;28.00;47.90;;;26.67;32.00;99994.16;10262563;28;96587;-88
2022/06/01 15:39:48;;;;;;;0.17;0.17;;;27.40;52.60;;;26.84;35.74;99991.06;10253299;28;98051;-89
2022/06/01 15:44:52;;;;;;;0.22;0.20;;;27.70;51.80;;;26.94;35.27;99997.28;10265401;28;97104;-88
2022/06/01 15:49:56;;;;;;;0.57;0.38;;;27.80;51.70;;;26.82;35.22;99991.38;10256534;28;97801;-89
2022/06/01 15:54:59;;;;;;;0.15;0.03;;;27.80;51.50;;;26.56;35.12;99993.38;10253868;28;96935;-90
2022/06/01 16:00:05;;;;;;;0.30;0.20;;;27.70;51.60;;;26.30;35.42;99989.88;10267734;28;96896;-89
2022/06/01 16:05:13;;;;;;;0.20;0.13;;;27.40;50.40;;;26.14;35.57;99991.81;10268103;28;98112;-89
2022/06/01 16:10:17;;;;;;;0.10;0.10;;;27.20;51.00;;;26.09;36.62;99993.78;10233829;28;96564;-89
2022/06/01 16:15:32;;;;;;;0.30;0.20;;;27.10;52.20;;;25.98;36.79;99992.97;10640102;27;97356;-79
2022/06/01 16:20:35;;;;;;;0.10;0.10;;;27.10;52.40;;;25.78;35.56;99993.78;10601103;27;96946;-78
2022/06/01 16:25:39;;;;;;;0.00;0.00;;;26.90;50.80;;;25.63;36.32;99983.69;10603016;27;98640;-81
2022/06/01 16:30:42;;;;;;;0.20;0.10;;;26.70;52.10;;;25.63;36.50;100001.94;10595937;27;97484;-81
2022/06/01 16:35:45;;;;;;;0.47;0.13;;;26.60;51.70;;;25.53;37.84;100001.91;10560039;27;96650;-81
2022/06/01 16:40:53;;;;;;;0.10;0.10;;;26.60;53.10;;;25.36;38.20;100000.28;10615454;27;96518;-80
2022/06/01 16:46:00;;;;;;;0.43;0.20;;;26.40;53.30;;;25.23;38.10;100003.53;10615047;27;98704;-80
2022/06/01 16:51:04;;;;;;;0.40;0.20;;;26.30;53.60;;;25.20;39.49;99993.19;10603814;27;97321;-80
2022/06/01 16:56:08;;;;;;;0.10;0.10;;;26.30;55.20;;;25.34;38.37;99998.91;10588051;27;98272;-80
2022/06/01 17:01:13;;;;;;;0.28;0.13;;;26.30;53.10;;;25.51;37.24;99990.50;10596743;27;96951;-81
2022/06/01 17:06:17;;;;;;;0.20;0.20;;;26.50;50.60;;;25.55;37.47;99988.84;10596796;27;98358;-80
2022/06/01 17:11:21;;;;;;;0.85;0.40;;;26.50;52.90;;;25.51;36.68;99987.78;10608856;27;96628;-80
2022/06/01 17:16:25;;;;;;;0.65;0.20;;;26.50;51.90;;;25.45;37.33;100005.19;10598254;27;97745;-79
2022/06/01 17:21:30;;;;;;;0.30;0.17;;;26.40;52.60;;;25.41;37.48;100001.38;10590176;27;97514;-79
2022/06/01 17:26:34;;;;;;;0.00;0.00;;;26.40;52.40;;;25.27;36.64;99999.19;10592403;27;98151;-79
2022/06/01 17:31:38;;;;;;;0.10;0.10;;;26.30;51.80;;;25.13;37.04;99999.97;10556076;27;96738;-79
2022/06/01 17:36:42;;;;;;;0.10;0.10;;;26.20;52.60;;;24.89;37.81;100000.44;10552969;27;96537;-79
2022/06/01 17:41:45;;;;;;;0.25;0.10;;;25.80;53.40;;;24.61;40.26;100007.09;10565867;27;98215;-79
2022/06/01 17:46:48;;;;;;;0.50;0.20;;;25.60;55.90;;;24.37;42.07;100006.72;10591913;27;96860;-79
2022/06/01 17:51:51;;;;;;;0.10;0.10;;;25.40;57.30;;;24.13;43.57;100003.56;10585096;27;96365;-79
2022/06/01 17:56:54;;;;;;;0.55;0.20;;;25.20;58.80;;;23.90;45.01;99995.81;10584002;27;97123;-79
2022/06/01 18:01:57;;;;;;;0.10;0.10;;;25.00;60.80;;;23.62;46.56;100003.16;10583011;27;96568;-79
2022/06/01 18:07:02;;;;;;;0.20;0.20;;;24.70;62.70;;;23.27;48.47;100003.66;10552419;27;96654;-79
2022/06/01 18:12:05;;;;;;;0.10;0.10;;;24.40;64.70;;;22.96;50.24;100003.31;10565874;27;97898;-78
2022/06/01 18:17:09;;;;;;;0.20;0.20;;;24.10;66.70;;;22.70;51.22;100013.00;10581543;27;97369;-79
2022/06/01 18:22:13;;;;;;;1.13;0.17;;;23.80;67.60;;;22.39;52.07;100005.56;10593187;27;96581;-79
2022/06/01 18:27:16;;;;;;;1.25;0.30;;;23.50;67.40;;;22.10;52.09;100007.59;10561446;27;96699;-79
2022/06/01 18:32:20;;;;;;;0.25;0.20;;;23.30;66.80;;;21.78;51.85;100018.16;10552089;27;97805;-79
2022/06/01 18:37:24;;;;;;;0.55;0.22;;;23.10;67.30;;;21.50;53.14;100014.44;10550163;27;96496;-79
2022/06/01 18:42:28;;;;;;;0.30;0.10;;;22.80;69.10;;;21.24;53.60;100023.94;10563610;27;97075;-79
2022/06/01 18:47:31;;;;;;;0.30;0.28;;;22.50;70.00;;;20.96;53.93;100024.75;10555638;27;96629;-79
2022/06/01 18:52:35;;;;;;;0.55;0.43;;;22.20;70.00;;;20.74;55.35;100035.38;10553292;27;97608;-81
2022/06/01 18:57:39;;;;;;;0.30;0.20;;;22.00;71.60;;;20.54;55.60;100033.09;10552112;27;97082;-81
2022/06/01 19:02:42;;;;;;;0.52;0.38;;;21.70;72.10;;;20.34;56.38;100029.91;10555014;27;98882;-82
2022/06/01 19:07:45;;;;;;;0.68;0.47;;;21.50;73.20;;;20.14;56.68;100041.03;10549775;27;96988;-84
2022/06/01 19:12:49;;;;;;;0.30;0.30;;;21.30;72.80;;;19.96;56.82;100044.66;10558296;27;97704;-80
2022/06/01 19:17:54;;;;;;;0.38;0.25;;;21.20;72.40;;;19.82;56.75;100048.66;10554656;27;96650;-80
2022/06/01 19:22:57;;;;;;;0.25;0.22;;;21.00;72.70;;;19.65;56.83;100051.19;10566609;27;97153;-81
2022/06/01 19:28:01;;;;;;;0.22;0.20;;;20.90;72.90;;;19.48;56.81;100061.75;10558472;27;96542;-81
2022/06/01 19:33:06;;;;;;;0.30;0.30;;;20.80;73.30;;;19.30;56.13;100067.19;10549969;27;97517;-81
2022/06/01 19:49:01;;;;;;;0.10;0.10;;;20.10;74.40;;;18.83;57.58;100076.91;10558693;27;99015;-80
2022/06/01 19:54:05;;;;;;;0.15;0.10;;;20.00;74.10;;;18.73;57.38;100073.94;10579879;27;97017;-80
2022/06/01 19:59:09;;;;;;;0.38;0.25;;;20.00;75.20;;;18.59;57.18;100070.50;10546439;27;96576;-80
2022/06/01 20:04:12;;;;;;;0.10;0.10;;;19.90;73.80;;;18.47;56.73;100062.34;10582680;27;97199;-80
2022/06/01 20:09:15;;;;;;;1.67;0.55;;;19.70;73.30;;;18.34;57.05;100060.63;10575954;27;98327;-80
2022/06/01 20:14:18;;;;;;;0.28;0.22;;;19.60;74.30;;;18.17;57.36;100040.72;10563023;27;97275;-81
2022/06/01 20:19:21;;;;;;;0.30;0.30;;;19.40;74.60;;;18.04;57.86;100041.66;10553089;27;96549;-80
2022/06/01 20:24:25;;;;;;;0.30;0.30;;;19.30;75.00;;;17.91;57.38;100044.47;10559488;27;97734;-84
2022/06/01 20:29:28;;;;;;;0.43;0.22;;;19.20;74.30;;;17.80;58.23;100062.13;10553376;27;96905;-79
2022/06/01 20:34:32;;;;;;;0.10;0.10;;;19.10;74.60;;;17.72;59.04;100064.25;10561837;27;97465;-79
2022/06/01 20:39:36;;;;;;;0.25;0.15;;;19.00;77.10;;;17.49;59.66;100054.06;10551919;27;97750;-79
2022/06/01 20:44:39;;;;;;;0.38;0.30;;;18.80;77.80;;;17.34;60.06;100057.88;10564387;27;98040;-79
2022/06/01 20:49:42;;;;;;;0.98;0.32;;;18.60;77.50;;;17.21;59.11;100065.16;10571082;27;96698;-79
2022/06/01 20:54:46;;;;;;;0.28;0.20;;;18.50;76.30;;;17.05;59.41;100069.16;10553692;27;97278;-79
2022/06/01 20:59:49;;;;;;;0.60;0.35;;;18.30;77.10;;;16.95;60.37;100079.53;10565518;27;97559;-79
2022/06/01 21:04:52;;;;;;;0.52;0.28;;;18.20;77.90;;;16.89;60.19;100069.63;10589480;27;97319;-79
2022/06/01 21:09:55;;;;;;;0.63;0.30;;;18.20;78.00;;;16.80;60.56;100077.94;10582034;27;97647;-79
2022/06/01 21:15:02;;;;;;;0.10;0.03;;;18.10;78.70;;;16.67;60.20;100077.91;10558615;27;98430;-79
2022/06/01 21:20:07;;;;;;;0.20;0.20;;;18.00;78.40;;;16.57;60.61;100082.91;10557616;27;98409;-79
2022/06/01 21:25:12;;;;;;;0.28;0.28;;;17.80;79.40;;;16.45;60.86;100085.41;10574060;27;96768;-79
2022/06/01 21:30:17;;;;;;;0.88;0.40;;;17.60;79.60;;;16.38;61.41;100089.13;10562570;27;98157;-78
2022/06/01 21:35:22;;;;;;;0.52;0.47;;;17.60;80.40;;;16.31;61.27;100084.59;10565639;27;97406;-79
2022/06/01 21:40:25;;;;;;;0.52;0.13;;;17.50;79.80;;;16.29;61.15;100085.84;10584685;27;98152;-79
2022/06/01 21:45:28;;;;;;;0.20;0.20;;;17.60;80.00;;;16.26;60.98;100089.75;10551707;27;96795;-78
2022/06/01 21:50:31;;;;;;;0.47;0.30;;;17.50;80.30;;;16.21;61.02;100089.56;10565712;27;96626;-79
2022/06/01 21:55:35;;;;;;;0.30;0.28;;;17.50;79.90;;;16.17;61.78;100095.53;10570916;27;96565;-79
2022/06/01 22:00:46;;;;;;;0.30;0.30;;;17.40;81.10;;;16.10;61.83;100084.81;10560298;27;96765;-79
2022/06/01 22:05:50;;;;;;;0.82;0.20;;;17.40;80.70;;;16.05;62.37;100085.44;10567746;27;97984;-79
2022/06/01 22:16:22;;;;;;;0.10;0.10;;;17.30;82.40;;;15.86;62.97;100096.16;10558900;27;97046;-78
2022/06/01 22:21:25;;;;;;;0.10;0.10;;;17.10;82.70;;;15.76;63.27;100100.03;10545767;27;98110;-79
2022/06/01 22:26:29;;;;;;;0.38;0.15;;;17.10;82.50;;;15.71;63.86;100107.88;10552324;27;96652;-79
2022/06/01 22:31:33;;;;;;;0.40;0.40;;;17.10;83.20;;;15.68;64.37;100105.59;10551002;27;97443;-79